createdAt,value
2022-10-28T00:02:20.277Z,4.43
2022-10-28T00:04:50.190Z,4.50
2022-10-28T00:07:20.124Z,4.22
2022-10-28T00:09:49.992Z,4.38
2022-10-28T00:12:19.765Z,4.68
2022-10-28T00:14:49.649Z,4.43
2022-10-28T00:17:19.515Z,4.05
2022-10-28T00:19:49.484Z,3.95
2022-10-28T00:22:19.441Z,3.33
2022-10-28T00:24:49.219Z,3.40
2022-10-28T00:27:18.728Z,3.22
2022-10-28T00:29:49.342Z,3.28
2022-10-28T00:32:19.423Z,3.38
2022-10-28T00:34:49.613Z,3.25
2022-10-28T00:37:19.441Z,3.45
2022-10-28T00:39:49.364Z,3.20
2022-10-28T00:42:24.001Z,3.08
2022-10-28T00:45:04.702Z,3.67
2022-10-28T00:47:59.251Z,3.58
2022-10-28T00:50:48.268Z,3.47
2022-10-28T00:53:28.514Z,3.85
2022-10-28T00:56:01.604Z,4.30
2022-10-28T00:58:32.831Z,4.15
2022-10-28T01:01:03.215Z,4.25
2022-10-28T01:03:33.396Z,4.25
2022-10-28T01:06:04.020Z,4.10
2022-10-28T01:08:33.990Z,4.45
2022-10-28T01:11:31.125Z,4.20
2022-10-28T01:14:22.409Z,4.22
2022-10-28T01:17:22.719Z,3.70
2022-10-28T01:20:21.519Z,3.17
2022-10-28T01:23:25.406Z,3.95
2022-10-28T01:26:34.780Z,3.20
2022-10-28T01:29:43.471Z,3.55
2022-10-28T01:32:31.774Z,3.10
2022-10-28T01:35:15.925Z,3.42
2022-10-28T01:38:24.828Z,3.42
2022-10-28T01:41:17.097Z,3.88
2022-10-28T01:44:09.614Z,3.28
2022-10-28T01:47:10.026Z,3.42
2022-10-28T01:49:53.202Z,3.20
2022-10-28T01:52:27.037Z,3.30
2022-10-28T01:55:29.959Z,2.90
2022-10-28T01:58:02.606Z,2.75
2022-10-28T02:00:33.915Z,2.88
2022-10-28T02:03:03.604Z,3.20
2022-10-28T02:05:48.029Z,3.10
2022-10-28T02:08:46.609Z,3.03
2022-10-28T02:11:40.698Z,2.83
2022-10-28T02:14:25.592Z,2.50
2022-10-28T02:17:15.071Z,3.10
2022-10-28T02:20:14.708Z,2.90
2022-10-28T02:23:19.094Z,3.28
2022-10-28T02:26:01.422Z,2.95
2022-10-28T02:28:57.052Z,3.70
2022-10-28T02:31:45.394Z,2.55
2022-10-28T02:34:21.914Z,2.63
2022-10-28T02:36:54.770Z,3.00
2022-10-28T02:39:30.004Z,3.08
2022-10-28T02:42:15.251Z,2.83
2022-10-28T02:44:54.567Z,3.20
2022-10-28T02:47:28.348Z,3.22
2022-10-28T02:50:04.793Z,2.88
2022-10-28T02:52:35.515Z,2.95
2022-10-28T02:55:07.695Z,3.28
2022-10-28T02:57:42.085Z,2.83
2022-10-28T03:00:17.232Z,3.05
2022-10-28T03:02:46.865Z,3.03
2022-10-28T03:05:16.362Z,3.47
2022-10-28T03:07:45.952Z,2.85
2022-10-28T03:10:18.291Z,2.97
2022-10-28T03:12:47.873Z,2.70
2022-10-28T03:15:17.462Z,3.42
2022-10-28T03:17:46.991Z,3.00
2022-10-28T03:20:16.692Z,2.88
2022-10-28T03:22:46.712Z,2.60
2022-10-28T03:25:17.396Z,2.83
2022-10-28T03:27:46.926Z,3.70
2022-10-28T03:30:16.450Z,2.35
2022-10-28T03:32:46.136Z,2.42
2022-10-28T03:35:15.682Z,3.03
2022-10-28T03:37:46.108Z,3.00
2022-10-28T03:40:16.000Z,2.70
2022-10-28T03:42:45.519Z,2.85
2022-10-28T03:45:15.039Z,3.45
2022-10-28T03:47:44.607Z,2.83
2022-10-28T03:50:14.154Z,2.85
2022-10-28T03:52:48.934Z,2.35
2022-10-28T03:55:18.798Z,2.92
2022-10-28T03:57:48.471Z,3.50
2022-10-28T04:00:18.549Z,3.25
2022-10-28T04:02:55.425Z,2.72
2022-10-28T04:05:25.206Z,3.03
2022-10-28T04:07:55.803Z,3.28
2022-10-28T04:10:25.355Z,3.70
2022-10-28T04:12:55.338Z,3.58
2022-10-28T04:15:24.987Z,3.50
2022-10-28T04:17:54.503Z,3.00
2022-10-28T04:20:24.559Z,3.78
2022-10-28T04:22:57.306Z,2.60
2022-10-28T04:25:28.979Z,2.53
2022-10-28T04:27:58.559Z,2.72
2022-10-28T04:30:28.473Z,3.67
2022-10-28T04:32:58.278Z,3.15
2022-10-28T04:35:28.252Z,2.72
2022-10-28T04:37:58.106Z,2.38
2022-10-28T04:40:27.940Z,2.50
2022-10-28T04:42:57.753Z,2.60
2022-10-28T04:45:27.613Z,2.90
2022-10-28T04:48:03.906Z,2.70
2022-10-28T04:50:33.869Z,2.78
2022-10-28T04:53:03.875Z,2.80
2022-10-28T04:55:33.690Z,2.60
2022-10-28T04:58:03.729Z,3.10
2022-10-28T05:00:33.673Z,3.05
2022-10-28T05:03:06.515Z,2.90
2022-10-28T05:05:36.165Z,2.40
2022-10-28T05:08:05.720Z,2.33
2022-10-28T05:10:35.444Z,2.47
2022-10-28T05:13:04.970Z,2.70
2022-10-28T05:15:34.504Z,2.60
2022-10-28T05:18:03.981Z,2.63
2022-10-28T05:20:33.490Z,2.85
2022-10-28T05:23:03.066Z,2.95
2022-10-28T05:25:32.773Z,3.00
2022-10-28T05:28:02.500Z,2.70
2022-10-28T05:30:31.975Z,2.78
2022-10-28T05:33:03.576Z,2.55
2022-10-28T05:35:33.449Z,2.75
2022-10-28T05:38:02.982Z,2.30
2022-10-28T05:40:34.317Z,2.50
2022-10-28T05:43:04.289Z,2.78
2022-10-28T05:45:33.993Z,3.03
2022-10-28T05:48:03.717Z,2.58
2022-10-28T05:50:33.233Z,2.75
2022-10-28T05:53:03.038Z,2.97
2022-10-28T05:55:33.273Z,2.85
2022-10-28T05:58:02.955Z,2.67
2022-10-28T06:00:32.570Z,2.50
2022-10-28T06:03:12.375Z,2.63
2022-10-28T06:05:45.979Z,2.30
2022-10-28T06:08:16.551Z,2.40
2022-10-28T06:10:55.178Z,2.50
2022-10-28T06:13:25.062Z,2.58
2022-10-28T06:15:57.464Z,2.85
2022-10-28T06:18:27.015Z,3.47
2022-10-28T06:20:58.901Z,3.63
2022-10-28T06:23:31.830Z,2.60
2022-10-28T06:26:03.534Z,2.75
2022-10-28T06:28:33.565Z,3.33
2022-10-28T06:31:06.788Z,2.88
2022-10-28T06:33:36.765Z,2.72
2022-10-28T06:36:06.583Z,2.95
2022-10-28T06:38:36.198Z,2.72
2022-10-28T06:41:06.011Z,2.22
2022-10-28T06:43:35.538Z,2.30
2022-10-28T06:46:06.024Z,2.55
2022-10-28T06:48:37.063Z,2.47
2022-10-28T06:51:06.774Z,3.13
2022-10-28T06:53:36.272Z,2.30
2022-10-28T06:56:05.942Z,2.78
2022-10-28T06:58:36.412Z,2.53
2022-10-28T07:01:07.412Z,3.38
2022-10-28T07:03:37.351Z,3.10
2022-10-28T07:06:07.807Z,3.55
2022-10-28T07:08:37.672Z,2.60
2022-10-28T07:11:07.613Z,2.65
2022-10-28T07:13:37.527Z,2.80
2022-10-28T07:16:07.977Z,3.47
2022-10-28T07:18:37.826Z,2.83
2022-10-28T07:21:07.925Z,2.65
2022-10-28T07:23:37.893Z,2.53
2022-10-28T07:26:08.401Z,2.53
2022-10-28T07:28:38.277Z,2.60
2022-10-28T07:31:07.958Z,2.70
2022-10-28T07:33:37.568Z,2.92
2022-10-28T07:36:08.665Z,3.10
2022-10-28T07:38:38.199Z,2.83
2022-10-28T07:41:11.668Z,2.80
2022-10-28T07:43:41.784Z,3.08
2022-10-28T07:46:11.925Z,2.72
2022-10-28T07:48:41.866Z,3.38
2022-10-28T07:51:14.629Z,2.80
2022-10-28T07:53:44.252Z,2.85
2022-10-28T07:56:17.828Z,3.42
2022-10-28T07:58:47.494Z,2.42
2022-10-28T08:01:20.022Z,2.47
2022-10-28T08:03:52.190Z,2.67
2022-10-28T08:06:23.737Z,2.67
2022-10-28T08:08:57.783Z,2.45
2022-10-28T08:11:27.684Z,3.22
2022-10-28T08:13:58.089Z,2.78
2022-10-28T08:16:30.681Z,2.95
2022-10-28T08:19:04.032Z,3.05
2022-10-28T08:21:36.705Z,3.00
2022-10-28T08:24:06.693Z,3.13
2022-10-28T08:26:36.523Z,2.90
2022-10-28T08:29:06.063Z,2.92
2022-10-28T08:31:36.304Z,2.83
2022-10-28T08:34:05.913Z,2.60
2022-10-28T08:36:36.075Z,2.88
2022-10-28T08:39:05.714Z,3.35
2022-10-28T08:42:12.577Z,3.20
2022-10-28T08:45:16.292Z,2.97
2022-10-28T08:48:14.719Z,3.38
2022-10-28T08:50:55.115Z,3.10
2022-10-28T08:53:30.469Z,3.35
2022-10-28T08:56:16.167Z,3.40
2022-10-28T08:58:47.596Z,2.97
2022-10-28T09:01:28.694Z,2.97
2022-10-28T09:03:59.579Z,3.47
2022-10-28T09:06:29.419Z,3.10
2022-10-28T09:09:00.686Z,3.17
2022-10-28T09:12:09.421Z,3.38
2022-10-28T09:15:06.735Z,3.40
2022-10-28T09:18:01.811Z,2.70
2022-10-28T09:20:50.071Z,3.47
2022-10-28T09:23:41.711Z,3.08
2022-10-28T09:26:35.154Z,3.20
2022-10-28T09:29:43.271Z,2.65
2022-10-28T09:32:45.089Z,3.35
2022-10-28T09:35:26.844Z,3.20
2022-10-28T09:38:28.667Z,3.40
2022-10-28T09:41:23.401Z,2.70
2022-10-28T09:44:00.928Z,3.13
2022-10-28T09:46:37.014Z,4.20
2022-10-28T09:49:14.328Z,3.40
2022-10-28T09:51:57.748Z,3.80
2022-10-28T09:54:38.027Z,3.30
2022-10-28T09:57:08.063Z,3.45
2022-10-28T09:59:38.129Z,2.85
2022-10-28T10:02:08.195Z,3.13
2022-10-28T10:04:38.119Z,2.80
2022-10-28T10:07:14.009Z,3.38
2022-10-28T10:09:45.312Z,3.50
2022-10-28T10:12:15.779Z,3.20
2022-10-28T10:14:52.302Z,4.00
2022-10-28T10:17:32.587Z,4.07
2022-10-28T10:20:08.784Z,3.22
2022-10-28T10:22:41.102Z,4.30
2022-10-28T10:25:33.933Z,3.67
2022-10-28T10:28:16.242Z,3.85
2022-10-28T10:30:54.364Z,3.13
2022-10-28T10:33:35.748Z,4.50
2022-10-28T10:36:19.209Z,3.80
2022-10-28T10:38:58.920Z,3.78
2022-10-28T10:41:48.210Z,4.03
2022-10-28T10:44:36.409Z,3.88
2022-10-28T10:47:20.729Z,4.07
2022-10-28T10:49:51.483Z,4.20
2022-10-28T10:52:27.480Z,3.95
2022-10-28T10:55:07.021Z,4.03
2022-10-28T10:57:37.488Z,4.28
2022-10-28T11:00:08.133Z,3.65
2022-10-28T11:02:41.364Z,4.15
2022-10-28T11:05:14.872Z,4.10
2022-10-28T11:07:50.377Z,4.57
2022-10-28T11:10:33.485Z,4.60
2022-10-28T11:13:08.489Z,4.38
2022-10-28T11:15:37.988Z,4.68
2022-10-28T11:18:27.028Z,4.25
2022-10-28T11:21:09.315Z,4.90
2022-10-28T11:24:11.314Z,5.43
2022-10-28T11:27:04.631Z,5.22
2022-10-28T11:29:34.450Z,5.18
2022-10-28T11:32:20.823Z,4.68
2022-10-28T11:35:25.778Z,4.75
2022-10-28T11:38:21.886Z,4.72
2022-10-28T11:41:30.831Z,5.43
2022-10-28T11:44:05.264Z,4.72
2022-10-28T11:47:14.326Z,5.20
2022-10-28T11:50:22.993Z,5.72
2022-10-28T11:53:25.014Z,5.07
2022-10-28T11:56:08.301Z,6.07
2022-10-28T11:59:07.225Z,5.38
2022-10-28T12:02:16.040Z,7.20
2022-10-28T12:05:16.270Z,8.35
2022-10-28T12:08:07.928Z,9.32
2022-10-28T12:11:11.697Z,7.63
2022-10-28T12:14:20.546Z,8.13
2022-10-28T12:17:05.406Z,7.72
2022-10-28T12:19:45.476Z,7.55
2022-10-28T12:22:38.100Z,7.43
2022-10-28T12:25:16.282Z,7.85
2022-10-28T12:27:50.217Z,7.32
2022-10-28T12:30:33.104Z,6.65
2022-10-28T12:33:26.523Z,7.35
2022-10-28T12:36:21.857Z,7.32
2022-10-28T12:39:23.818Z,8.13
2022-10-28T12:42:23.069Z,6.68
2022-10-28T12:44:56.756Z,7.20
2022-10-28T12:47:51.250Z,9.40
2022-10-28T12:50:31.223Z,11.02
2022-10-28T12:53:30.586Z,14.13
2022-10-28T12:56:08.381Z,16.60
2022-10-28T12:59:09.175Z,19.52
2022-10-28T13:01:39.018Z,18.38
2022-10-28T13:04:08.906Z,19.05
2022-10-28T13:07:17.589Z,20.85
2022-10-28T13:10:26.576Z,18.98
2022-10-28T13:13:35.201Z,13.52
2022-10-28T13:16:37.678Z,14.30
2022-10-28T13:19:39.211Z,12.77
2022-10-28T13:22:47.980Z,15.55
2022-10-28T13:25:45.271Z,23.45
2022-10-28T13:28:20.098Z,22.38
2022-10-28T13:31:08.863Z,22.00
2022-10-28T13:33:40.942Z,19.77
2022-10-28T13:36:38.363Z,17.52
2022-10-28T13:39:23.371Z,19.67
2022-10-28T13:42:32.084Z,18.27
2022-10-28T13:45:05.086Z,17.33
2022-10-28T13:47:36.538Z,17.63
2022-10-28T13:50:17.916Z,18.33
2022-10-28T13:52:49.343Z,16.92
2022-10-28T13:55:44.216Z,18.75
2022-10-28T13:58:26.365Z,16.27
2022-10-28T14:00:56.645Z,16.92
2022-10-28T14:03:30.030Z,16.48
2022-10-28T14:06:02.491Z,16.70
2022-10-28T14:08:41.133Z,15.57
2022-10-28T14:11:24.108Z,17.52
2022-10-28T14:14:04.442Z,16.05
2022-10-28T14:16:42.849Z,15.27
2022-10-28T14:19:25.051Z,15.02
2022-10-28T14:22:11.526Z,15.77
2022-10-28T14:24:44.768Z,16.15
2022-10-28T14:27:32.215Z,16.45
2022-10-28T14:30:21.215Z,15.25
2022-10-28T14:33:02.603Z,15.15
2022-10-28T14:35:45.326Z,13.90
2022-10-28T14:38:37.503Z,13.57
2022-10-28T14:41:27.523Z,13.10
2022-10-28T14:44:23.459Z,13.07
2022-10-28T14:47:33.016Z,12.68
2022-10-28T14:50:28.173Z,12.68
2022-10-28T14:52:59.106Z,11.70
2022-10-28T14:55:33.268Z,11.40
2022-10-28T14:58:23.772Z,9.85
2022-10-28T15:01:29.940Z,10.10
2022-10-28T15:04:03.745Z,9.73
2022-10-28T15:06:40.775Z,9.20
2022-10-28T15:09:31.489Z,9.40
2022-10-28T15:12:09.497Z,9.82
2022-10-28T15:17:21.128Z,9.00
2022-10-28T15:19:55.358Z,9.32
2022-10-28T15:22:32.372Z,9.20
2022-10-28T15:25:12.618Z,8.88
2022-10-28T15:27:45.092Z,9.32
2022-10-28T15:30:25.222Z,8.98
2022-10-28T15:32:56.672Z,8.88
2022-10-28T15:35:40.530Z,8.45
2022-10-28T15:38:36.774Z,9.05
2022-10-28T15:41:40.661Z,9.13
2022-10-28T15:44:35.691Z,10.05
2022-10-28T15:47:26.747Z,8.65
2022-10-28T15:50:07.380Z,8.90
2022-10-28T15:52:41.035Z,9.63
2022-10-28T15:55:41.412Z,8.82
2022-10-28T15:58:45.080Z,9.07
2022-10-28T16:01:42.599Z,9.18
2022-10-28T16:04:46.504Z,9.13
2022-10-28T16:07:16.578Z,9.13
2022-10-28T16:09:52.112Z,9.70
2022-10-28T16:12:25.500Z,8.88
2022-10-28T16:15:04.185Z,8.52
2022-10-28T16:17:37.785Z,9.85
2022-10-28T16:20:18.700Z,9.32
2022-10-28T16:22:50.058Z,8.55
2022-10-28T16:25:23.352Z,8.90
2022-10-28T16:27:53.805Z,9.02
2022-10-28T16:32:53.688Z,9.35
2022-10-28T16:35:25.954Z,8.40
2022-10-28T16:37:55.986Z,8.23
2022-10-28T16:43:21.528Z,9.32
2022-10-28T16:45:52.230Z,8.98
2022-10-28T16:48:24.848Z,9.50
2022-10-28T16:50:57.017Z,9.70
2022-10-28T16:53:26.843Z,9.70
2022-10-28T16:56:02.592Z,10.05
2022-10-28T16:58:32.697Z,8.75
2022-10-28T17:01:02.509Z,9.80
2022-10-28T17:03:38.272Z,9.80
2022-10-28T17:06:08.107Z,10.35
2022-10-28T17:09:01.375Z,10.32
2022-10-28T17:11:27.255Z,10.13
2022-10-28T17:13:56.768Z,9.52
2022-10-28T17:16:27.028Z,8.90
2022-10-28T17:18:56.630Z,9.80
2022-10-28T17:21:26.188Z,9.27
2022-10-28T17:23:55.841Z,9.23
2022-10-28T17:26:25.433Z,9.15
2022-10-28T17:28:56.200Z,9.50
2022-10-28T17:31:26.950Z,8.82
2022-10-28T17:33:57.565Z,9.00
2022-10-28T17:36:27.469Z,8.32
2022-10-28T17:38:57.388Z,9.32
2022-10-28T17:41:27.297Z,8.75
2022-10-28T17:43:57.534Z,9.25
2022-10-28T17:46:27.593Z,8.45
2022-10-28T17:48:57.648Z,9.73
2022-10-28T17:51:27.706Z,9.15
2022-10-28T17:53:58.149Z,9.90
2022-10-28T17:56:28.087Z,9.20
2022-10-28T17:58:58.029Z,8.52
2022-10-28T18:01:28.033Z,8.63
2022-10-28T18:03:57.862Z,8.75
2022-10-28T18:06:27.929Z,8.23
2022-10-28T18:08:59.863Z,9.18
2022-10-28T18:11:32.953Z,9.07
2022-10-28T18:14:05.516Z,8.35
2022-10-28T18:16:37.743Z,8.20
2022-10-28T18:19:09.337Z,9.00
2022-10-28T18:21:39.250Z,9.20
2022-10-28T18:24:09.513Z,10.02
2022-10-28T18:26:40.834Z,10.10
2022-10-28T18:29:12.147Z,10.40
2022-10-28T18:31:43.977Z,10.00
2022-10-28T18:34:13.527Z,9.02
2022-10-28T18:36:43.017Z,8.98
2022-10-28T18:39:12.596Z,8.73
2022-10-28T18:41:44.455Z,8.68
2022-10-28T18:44:16.322Z,9.27
2022-10-28T18:46:47.436Z,8.13
2022-10-28T18:49:17.032Z,9.40
2022-10-28T18:51:46.675Z,10.30
2022-10-28T18:54:16.237Z,10.00
2022-10-28T18:56:47.880Z,11.90
2022-10-28T18:59:18.237Z,12.25
2022-10-28T19:01:48.404Z,12.07
2022-10-28T19:04:17.979Z,14.75
2022-10-28T19:06:48.400Z,14.57
2022-10-28T19:09:17.921Z,14.48
2022-10-28T19:11:47.422Z,13.38
2022-10-28T19:14:17.007Z,13.98
2022-10-28T19:16:46.624Z,12.73
2022-10-28T19:19:16.156Z,12.25
2022-10-28T19:21:45.695Z,12.25
2022-10-28T19:24:15.156Z,11.30
2022-10-28T19:26:44.666Z,11.25
2022-10-28T19:29:15.368Z,11.57
2022-10-28T19:31:45.295Z,10.40
2022-10-28T19:34:16.880Z,9.88
2022-10-28T19:36:46.777Z,9.43
2022-10-28T19:39:16.621Z,11.73
2022-10-28T19:41:46.694Z,13.05
2022-10-28T19:44:16.506Z,12.23
2022-10-28T19:46:46.378Z,9.70
2022-10-28T19:49:16.238Z,9.82
2022-10-28T19:51:46.093Z,9.07
2022-10-28T19:54:17.569Z,9.30
2022-10-28T19:56:49.075Z,9.02
2022-10-28T19:59:18.967Z,9.13
2022-10-28T20:01:48.917Z,8.13
2022-10-28T20:04:19.099Z,9.35
2022-10-28T20:06:49.168Z,7.75
2022-10-28T20:09:18.938Z,8.43
2022-10-28T20:11:48.805Z,7.97
2022-10-28T20:14:18.634Z,8.23
2022-10-28T20:16:48.515Z,9.07
2022-10-28T20:19:18.463Z,7.85
2022-10-28T20:21:50.163Z,7.97
2022-10-28T20:24:21.357Z,8.35
2022-10-28T20:26:51.184Z,8.02
2022-10-28T20:29:20.720Z,8.38
2022-10-28T20:31:50.258Z,8.32
2022-10-28T20:34:20.927Z,8.23
2022-10-28T20:36:50.415Z,8.27
2022-10-28T20:39:24.750Z,8.02
2022-10-28T20:41:54.400Z,8.52
2022-10-28T20:44:23.975Z,8.48
2022-10-28T20:46:53.488Z,7.88
2022-10-28T20:49:23.005Z,8.50
2022-10-28T20:51:52.568Z,8.35
2022-10-28T20:54:21.985Z,7.65
2022-10-28T20:56:51.567Z,8.10
2022-10-28T20:59:21.117Z,8.20
2022-10-28T21:01:52.876Z,8.80
2022-10-28T21:04:22.554Z,8.32
2022-10-28T21:06:52.203Z,8.60
2022-10-28T21:09:21.807Z,7.80
2022-10-28T21:11:51.293Z,8.90
2022-10-28T21:14:20.824Z,8.38
2022-10-28T21:16:53.289Z,8.00
2022-10-28T21:19:22.797Z,8.23
2022-10-28T21:21:52.360Z,7.72
2022-10-28T21:24:21.900Z,7.38
2022-10-28T21:26:52.217Z,8.55
2022-10-28T21:29:21.914Z,8.48
2022-10-28T21:31:51.946Z,8.75
2022-10-28T21:34:21.521Z,8.18
2022-10-28T21:36:51.201Z,8.55
2022-10-28T21:39:21.010Z,7.63
2022-10-28T21:41:50.882Z,8.50
2022-10-28T21:44:20.797Z,7.43
2022-10-28T21:46:51.579Z,7.88
2022-10-28T21:49:21.418Z,7.93
2022-10-28T21:51:51.327Z,10.18
2022-10-28T21:54:21.244Z,9.65
2022-10-28T21:56:52.418Z,10.18
2022-10-28T21:59:22.376Z,9.27
2022-10-28T22:01:52.281Z,8.57
2022-10-28T22:04:22.642Z,8.75
2022-10-28T22:06:52.579Z,9.23
2022-10-28T22:09:22.460Z,8.00
2022-10-28T22:11:52.230Z,7.85
2022-10-28T22:14:22.982Z,8.90
2022-10-28T22:16:52.830Z,9.10
2022-10-28T22:19:22.861Z,9.07
2022-10-28T22:21:52.781Z,8.75
2022-10-28T22:24:22.727Z,8.38
2022-10-28T22:26:52.681Z,7.82
2022-10-28T22:29:22.571Z,8.25
2022-10-28T22:31:52.425Z,8.70
2022-10-28T22:34:22.636Z,8.27
2022-10-28T22:36:52.539Z,8.57
2022-10-28T22:39:22.320Z,8.32
2022-10-28T22:41:52.213Z,8.20
2022-10-28T22:44:22.007Z,8.70
2022-10-28T22:46:51.899Z,8.38
2022-10-28T22:49:24.096Z,8.00
2022-10-28T22:51:53.941Z,7.93
2022-10-28T22:54:23.735Z,8.07
2022-10-28T22:56:53.585Z,8.43
2022-10-28T22:59:23.523Z,9.00
2022-10-28T23:01:53.778Z,8.63
2022-10-28T23:04:23.579Z,8.32
2022-10-28T23:06:53.160Z,9.23
2022-10-28T23:09:22.894Z,9.52
2022-10-28T23:11:52.510Z,9.63
2022-10-28T23:14:22.010Z,8.63
2022-10-28T23:16:51.872Z,9.05
2022-10-28T23:19:21.540Z,9.05
2022-10-28T23:21:51.043Z,8.65
2022-10-28T23:24:20.656Z,9.15
2022-10-28T23:26:50.168Z,11.15
2022-10-28T23:29:19.753Z,11.38
2022-10-28T23:31:49.660Z,9.57
2022-10-28T23:34:19.571Z,10.70
2022-10-28T23:36:51.734Z,10.68
2022-10-28T23:39:21.353Z,9.38
2022-10-28T23:41:51.040Z,9.63
2022-10-28T23:44:20.553Z,10.05
2022-10-28T23:46:50.043Z,10.02
2022-10-28T23:49:19.968Z,10.23
2022-10-28T23:51:49.364Z,10.45
2022-10-28T23:54:18.839Z,10.02
2022-10-28T23:56:48.314Z,10.75
2022-10-28T23:59:17.823Z,10.38
